createdAt,value
2019-04-29T05:38:04.218Z,14.70
2019-04-29T05:40:44.011Z,14.80
2019-04-29T05:43:15.357Z,14.10
2019-04-29T05:46:07.300Z,13.98
2019-04-29T05:48:35.791Z,13.95
2019-04-29T05:51:27.288Z,14.35
2019-04-29T05:53:59.488Z,14.58
2019-04-29T05:56:28.855Z,15.78
2019-04-29T05:58:58.339Z,13.08
2019-04-29T06:01:29.932Z,12.40
2019-04-29T06:03:59.378Z,14.38
2019-04-29T06:06:29.875Z,16.50
2019-04-29T06:08:59.376Z,16.12
2019-04-29T06:11:29.016Z,15.90
2019-04-29T06:13:58.482Z,15.23
2019-04-29T06:16:28.406Z,14.00
2019-04-29T06:19:00.172Z,13.58
2019-04-29T06:21:29.138Z,12.95
2019-04-29T06:23:59.370Z,12.28
2019-04-29T06:26:30.144Z,12.13
2019-04-29T06:28:59.736Z,10.70
2019-04-29T06:31:29.376Z,13.00
2019-04-29T06:34:00.626Z,12.35
2019-04-29T06:36:30.511Z,12.20
2019-04-29T06:38:59.836Z,12.58
2019-04-29T06:41:29.610Z,14.15
2019-04-29T06:44:00.669Z,11.75
2019-04-29T06:46:31.602Z,12.47
2019-04-29T06:49:10.077Z,12.45
2019-04-29T06:51:32.382Z,15.85
2019-04-29T06:54:02.059Z,13.93
2019-04-29T06:56:31.702Z,15.58
2019-04-29T06:59:01.044Z,11.95
2019-04-29T07:01:33.111Z,13.35
2019-04-29T07:04:02.234Z,14.05
2019-04-29T07:06:31.914Z,13.93
2019-04-29T07:09:01.464Z,12.47
2019-04-29T07:11:36.372Z,14.75
2019-04-29T07:14:02.975Z,13.60
2019-04-29T07:16:32.944Z,14.50
2019-04-29T07:19:02.509Z,14.25
2019-04-29T07:21:32.196Z,13.08
2019-04-29T07:24:01.896Z,15.13
2019-04-29T07:26:31.784Z,12.35
2019-04-29T07:29:01.581Z,15.53
2019-04-29T07:31:33.178Z,13.32
2019-04-29T07:34:02.646Z,14.33
2019-04-29T07:36:32.736Z,12.05
2019-04-29T07:39:02.201Z,11.93
2019-04-29T07:41:33.189Z,13.85
2019-04-29T07:44:03.095Z,10.65
2019-04-29T07:46:55.126Z,14.05
2019-04-29T07:49:07.085Z,12.78
2019-04-29T07:51:40.822Z,14.23
2019-04-29T07:54:11.035Z,14.93
2019-04-29T07:56:43.505Z,11.03
2019-04-29T07:59:13.337Z,13.72
2019-04-29T08:01:43.345Z,13.90
2019-04-29T08:04:13.122Z,12.50
2019-04-29T08:06:44.429Z,14.05
2019-04-29T08:09:14.397Z,12.33
2019-04-29T08:11:44.114Z,14.47
2019-04-29T08:14:13.919Z,12.58
2019-04-29T08:16:43.646Z,13.72
2019-04-29T08:19:13.171Z,14.07
2019-04-29T08:21:45.605Z,13.15
2019-04-29T08:24:15.933Z,11.40
2019-04-29T08:26:47.595Z,11.85
2019-04-29T08:29:17.250Z,11.03
2019-04-29T08:31:47.303Z,12.80
2019-04-29T08:34:18.760Z,11.73
2019-04-29T08:36:59.046Z,14.18
2019-04-29T08:39:29.780Z,13.48
2019-04-29T08:42:03.793Z,16.05
2019-04-29T08:44:54.780Z,13.05
2019-04-29T08:47:31.636Z,17.37
2019-04-29T08:49:59.574Z,13.60
2019-04-29T08:52:29.221Z,13.08
2019-04-29T08:54:58.608Z,12.10
2019-04-29T08:57:31.849Z,13.93
2019-04-29T08:59:59.278Z,14.95
2019-04-29T09:02:34.948Z,14.53
2019-04-29T09:05:01.226Z,14.87
2019-04-29T09:07:30.859Z,15.23
2019-04-29T09:10:02.052Z,14.03
2019-04-29T09:12:31.859Z,15.08
2019-04-29T09:15:02.105Z,16.02
2019-04-29T09:17:31.530Z,16.05
2019-04-29T09:20:01.015Z,18.85
2019-04-29T09:22:32.256Z,17.45
2019-04-29T09:25:21.382Z,18.42
2019-04-29T09:27:51.431Z,16.60
2019-04-29T09:30:21.299Z,20.27
2019-04-29T09:32:50.888Z,21.42
2019-04-29T09:35:20.476Z,20.25
2019-04-29T09:37:53.740Z,23.50
2019-04-29T09:40:25.301Z,25.17
2019-04-29T09:43:15.869Z,26.65
2019-04-29T09:46:00.283Z,24.82
2019-04-29T09:48:29.970Z,22.10
2019-04-29T09:50:59.499Z,27.27
2019-04-29T09:53:28.954Z,24.30
2019-04-29T09:55:58.819Z,24.20
2019-04-29T09:58:28.247Z,26.50
2019-04-29T10:01:19.127Z,29.42
2019-04-29T10:03:53.843Z,27.77
2019-04-29T10:06:27.824Z,36.60
2019-04-29T10:08:57.478Z,39.50
2019-04-29T10:11:27.006Z,42.17
2019-04-29T10:13:56.917Z,39.85
2019-04-29T10:16:31.645Z,42.62
2019-04-29T10:19:05.228Z,41.65
2019-04-29T10:21:33.147Z,43.20
2019-04-29T10:24:02.760Z,45.00
2019-04-29T10:26:34.437Z,43.70
2019-04-29T10:29:05.480Z,41.90
2019-04-29T10:31:35.141Z,41.53
2019-04-29T10:34:06.222Z,47.43
2019-04-29T10:36:35.617Z,49.23
2019-04-29T10:39:09.413Z,51.55
2019-04-29T10:41:43.251Z,52.30
2019-04-29T10:44:32.595Z,47.08
2019-04-29T10:47:08.921Z,51.95
2019-04-29T10:49:42.739Z,51.80
2019-04-29T10:52:12.281Z,48.08
2019-04-29T10:54:42.643Z,46.13
2019-04-29T10:57:14.714Z,52.70
2019-04-29T10:59:46.200Z,48.73
2019-04-29T11:02:17.333Z,54.85
2019-04-29T11:04:48.401Z,52.90
2019-04-29T11:07:28.365Z,51.60
2019-04-29T11:09:59.546Z,51.60
2019-04-29T11:12:29.139Z,51.13
2019-04-29T11:15:01.394Z,56.73
2019-04-29T11:17:29.694Z,55.50
2019-04-29T11:19:59.312Z,58.40
2019-04-29T11:22:33.875Z,80.22
2019-04-29T11:25:12.242Z,85.62
2019-04-29T11:27:46.235Z,109.85
2019-04-29T11:30:17.259Z,89.17
2019-04-29T11:32:48.602Z,69.45
2019-04-29T11:35:19.801Z,69.15
2019-04-29T11:37:50.082Z,65.25
2019-04-29T11:40:26.031Z,73.02
2019-04-29T11:42:52.581Z,73.30
2019-04-29T11:45:22.444Z,70.47
2019-04-29T11:47:52.349Z,72.30
2019-04-29T11:50:26.677Z,68.80
2019-04-29T11:52:55.663Z,71.40
2019-04-29T11:55:25.271Z,78.57
2019-04-29T11:57:59.123Z,74.20
2019-04-29T12:00:47.991Z,77.72
2019-04-29T12:03:19.921Z,78.65
2019-04-29T12:05:51.211Z,77.75
2019-04-29T12:08:21.446Z,77.10
2019-04-29T12:11:06.169Z,85.50
2019-04-29T12:13:30.106Z,87.88
2019-04-29T12:16:01.322Z,82.70
2019-04-29T12:18:42.230Z,84.92
2019-04-29T12:21:19.664Z,87.27
2019-04-29T12:23:52.121Z,85.45
2019-04-29T12:26:20.750Z,78.12
2019-04-29T12:28:50.174Z,87.08
2019-04-29T12:31:31.564Z,77.97
2019-04-29T12:34:19.401Z,77.22
2019-04-29T12:36:55.985Z,84.52
2019-04-29T12:39:44.864Z,78.72
2019-04-29T12:42:29.040Z,78.92
2019-04-29T12:45:02.894Z,89.40
2019-04-29T12:47:34.051Z,80.72
2019-04-29T12:50:04.481Z,89.77
2019-04-29T12:52:34.060Z,81.47
2019-04-29T12:55:19.219Z,80.32
2019-04-29T12:57:35.402Z,78.50
2019-04-29T13:00:08.859Z,80.97
2019-04-29T13:03:00.152Z,87.05
2019-04-29T13:05:31.799Z,79.55
2019-04-29T13:08:03.242Z,87.57
2019-04-29T13:10:42.549Z,86.30
2019-04-29T13:13:11.545Z,81.30
2019-04-29T13:15:43.952Z,84.55
2019-04-29T13:18:23.103Z,85.90
2019-04-29T13:20:50.769Z,83.72
2019-04-29T13:23:33.679Z,86.15
2019-04-29T13:25:51.064Z,85.53
2019-04-29T13:28:29.930Z,88.82
2019-04-29T13:30:56.834Z,86.35
2019-04-29T13:33:22.982Z,90.53
2019-04-29T13:35:53.974Z,92.37
2019-04-29T13:38:23.583Z,86.00
2019-04-29T13:41:11.362Z,85.90
2019-04-29T13:43:25.906Z,89.92
2019-04-29T13:46:05.088Z,92.47
2019-04-29T13:48:54.722Z,83.82
2019-04-29T13:51:09.034Z,90.92
2019-04-29T13:53:38.818Z,95.35
2019-04-29T13:56:11.821Z,96.37
2019-04-29T13:58:39.441Z,88.70
2019-04-29T14:01:33.001Z,99.47
2019-04-29T14:04:06.140Z,99.77
2019-04-29T14:06:37.344Z,99.00
2019-04-29T14:09:08.684Z,98.17
2019-04-29T14:11:38.630Z,103.00
2019-04-29T14:14:08.092Z,107.90
2019-04-29T14:16:38.135Z,97.15
2019-04-29T14:19:08.762Z,101.95
2019-04-29T14:21:38.636Z,92.40
2019-04-29T14:24:08.859Z,90.17
2019-04-29T14:26:42.025Z,104.60
2019-04-29T14:29:11.073Z,101.53
2019-04-29T14:31:41.894Z,101.45
2019-04-29T14:34:16.474Z,123.25
2019-04-29T14:36:44.337Z,107.37
2019-04-29T14:39:18.929Z,101.42
2019-04-29T14:41:46.661Z,97.55
2019-04-29T14:44:17.806Z,99.00
2019-04-29T14:46:56.196Z,90.57
2019-04-29T14:49:30.714Z,95.77
2019-04-29T14:52:03.258Z,94.17
2019-04-29T14:54:31.362Z,89.70
2019-04-29T14:57:01.114Z,93.25
2019-04-29T14:59:31.197Z,101.25
2019-04-29T15:02:16.224Z,92.78
2019-04-29T15:04:41.372Z,95.75
2019-04-29T15:07:11.241Z,92.27
2019-04-29T15:09:46.834Z,86.85
2019-04-29T15:12:24.881Z,97.00
2019-04-29T15:15:05.302Z,102.87
2019-04-29T15:17:40.337Z,121.75
2019-04-29T15:20:30.244Z,108.60
2019-04-29T15:22:58.972Z,94.07
2019-04-29T15:25:28.683Z,96.17
2019-04-29T15:27:58.226Z,104.67
2019-04-29T15:30:31.683Z,94.87
2019-04-29T15:32:59.767Z,98.20
2019-04-29T15:35:29.537Z,91.72
2019-04-29T15:37:59.258Z,92.95
2019-04-29T15:40:29.002Z,98.72
2019-04-29T15:42:58.809Z,98.17
2019-04-29T15:45:32.439Z,95.87
2019-04-29T15:47:59.851Z,99.85
2019-04-29T15:50:37.112Z,95.92
2019-04-29T15:53:08.088Z,101.15
2019-04-29T15:55:39.492Z,94.03
2019-04-29T15:58:09.357Z,93.00
2019-04-29T16:00:40.433Z,92.97
2019-04-29T16:06:04.361Z,103.12
2019-04-29T16:08:35.398Z,101.40
2019-04-29T16:11:23.115Z,106.95
2019-04-29T16:14:08.399Z,108.92
2019-04-29T16:16:24.083Z,110.12
2019-04-29T16:18:53.630Z,83.75
2019-04-29T16:21:23.317Z,76.47
2019-04-29T16:23:57.523Z,98.60
2019-04-29T16:28:55.312Z,109.07
2019-04-29T16:31:25.612Z,104.92
2019-04-29T16:33:55.827Z,95.97
2019-04-29T16:36:26.518Z,114.70
2019-04-29T16:38:56.048Z,107.00
2019-04-29T16:41:27.521Z,107.43
2019-04-29T16:43:57.786Z,90.97
2019-04-29T16:46:37.444Z,99.20
2019-04-29T16:49:04.229Z,102.90
2019-04-29T16:51:33.815Z,121.72
2019-04-29T16:54:03.346Z,102.70
2019-04-29T16:56:33.444Z,109.70
2019-04-29T16:59:09.356Z,110.70
2019-04-29T17:01:34.489Z,100.27
2019-04-29T17:04:05.275Z,115.42
2019-04-29T17:06:41.533Z,113.17
2019-04-29T17:09:15.062Z,116.90
2019-04-29T17:11:50.542Z,60.65
2019-04-29T17:14:18.639Z,82.42
2019-04-29T17:16:48.337Z,101.50
2019-04-29T17:19:18.152Z,68.95
2019-04-29T17:21:47.798Z,100.82
2019-04-29T17:24:17.724Z,103.45
2019-04-29T17:26:52.165Z,102.78
2019-04-29T17:29:39.241Z,110.83
2019-04-29T17:32:08.589Z,109.48
2019-04-29T17:34:58.327Z,109.40
2019-04-29T17:35:15.456Z,94.40
2019-04-29T17:35:19.118Z,105.80
2019-04-29T17:37:11.354Z,87.90
2019-04-29T17:39:41.023Z,94.25
2019-04-29T17:42:10.660Z,112.62
2019-04-29T17:44:44.866Z,111.90
2019-04-29T17:47:16.302Z,122.00
2019-04-29T17:49:47.683Z,118.87
2019-04-29T17:52:22.218Z,94.50
2019-04-29T17:54:57.182Z,94.35
2019-04-29T17:57:31.447Z,104.17
2019-04-29T18:00:05.135Z,111.95
2019-04-29T18:02:40.410Z,121.28
2019-04-29T18:05:17.857Z,116.80
2019-04-29T18:08:02.972Z,117.08
2019-04-29T18:10:40.029Z,113.77
2019-04-29T18:13:08.279Z,103.85
2019-04-29T18:15:51.673Z,147.98
2019-04-29T18:18:17.412Z,129.78
2019-04-29T18:20:48.317Z,128.90
2019-04-29T18:23:22.217Z,119.00
2019-04-29T18:26:08.685Z,107.72
2019-04-29T18:28:50.657Z,135.60
2019-04-29T18:31:26.456Z,126.67
2019-04-29T18:33:58.173Z,116.53
2019-04-29T18:36:26.751Z,108.87
2019-04-29T18:39:00.404Z,74.15
2019-04-29T18:41:32.051Z,108.45
2019-04-29T18:44:03.067Z,103.47
2019-04-29T18:46:35.144Z,122.85
2019-04-29T18:49:06.622Z,59.45
2019-04-29T18:51:36.410Z,109.40
2019-04-29T18:54:06.232Z,94.77
2019-04-29T18:56:36.633Z,121.53
2019-04-29T18:59:08.755Z,149.80
2019-04-29T19:01:38.527Z,120.45
2019-04-29T19:04:16.757Z,116.15
2019-04-29T19:06:44.230Z,127.75
2019-04-29T19:09:19.810Z,120.33
2019-04-29T19:11:46.277Z,123.55
2019-04-29T19:14:15.881Z,112.77
2019-04-29T19:16:45.967Z,134.35
2019-04-29T19:19:15.601Z,133.30
2019-04-29T19:21:45.503Z,167.13
2019-04-29T19:24:18.008Z,151.07
2019-04-29T19:26:47.902Z,179.93
2019-04-29T19:29:21.119Z,154.97
2019-04-29T19:31:50.738Z,162.32
2019-04-29T19:34:20.611Z,162.03
2019-04-29T19:36:50.759Z,148.10
2019-04-29T19:39:23.372Z,180.32
2019-04-29T19:41:53.326Z,158.52
2019-04-29T19:44:26.483Z,162.30
2019-04-29T19:46:56.936Z,149.72
2019-04-29T19:49:25.848Z,153.78
2019-04-29T19:51:55.601Z,169.47
2019-04-29T19:54:28.424Z,141.25
2019-04-29T19:57:03.428Z,150.78
2019-04-29T19:59:28.719Z,158.12
2019-04-29T20:02:05.558Z,175.72
2019-04-29T20:04:32.000Z,182.43
2019-04-29T20:07:06.280Z,175.12
2019-04-29T20:09:33.719Z,168.70
2019-04-29T20:12:11.423Z,163.65
2019-04-29T20:14:37.598Z,165.10
2019-04-29T20:17:12.837Z,147.45
2019-04-29T20:19:55.313Z,132.97
2019-04-29T20:22:18.596Z,133.82
2019-04-29T20:24:50.929Z,156.00
2019-04-29T20:27:21.296Z,173.17
2019-04-29T20:29:51.379Z,182.00
2019-04-29T20:32:22.401Z,189.52
2019-04-29T20:34:52.816Z,139.07
2019-04-29T20:37:26.150Z,181.52
2019-04-29T20:39:57.273Z,173.28
2019-04-29T20:42:27.158Z,150.10
2019-04-29T20:44:56.989Z,170.72
2019-04-29T20:47:37.655Z,165.95
2019-04-29T20:49:58.548Z,145.38
2019-04-29T20:52:29.898Z,167.55
2019-04-29T20:55:02.423Z,151.15
2019-04-29T20:57:31.489Z,160.37
2019-04-29T21:00:01.099Z,145.72
2019-04-29T21:02:34.487Z,140.73
2019-04-29T21:05:02.118Z,139.57
2019-04-29T21:07:32.372Z,145.92
2019-04-29T21:10:06.723Z,142.75
2019-04-29T21:12:38.143Z,152.35
2019-04-29T21:15:14.700Z,150.85
2019-04-29T21:17:41.956Z,136.40
2019-04-29T21:20:12.859Z,164.60
2019-04-29T21:22:42.989Z,166.07
2019-04-29T21:25:12.647Z,169.20
2019-04-29T21:27:42.292Z,173.47
2019-04-29T21:30:11.836Z,184.05
2019-04-29T21:32:41.396Z,180.67
2019-04-29T21:35:17.058Z,179.05
2019-04-29T21:38:01.780Z,187.35
2019-04-29T21:40:35.927Z,183.65
2019-04-29T21:43:13.738Z,164.13
2019-04-29T21:45:39.909Z,183.55
2019-04-29T21:48:09.382Z,190.97
2019-04-29T21:50:38.862Z,196.53
2019-04-29T21:53:09.460Z,183.87
2019-04-29T21:55:38.876Z,208.23
2019-04-29T21:58:08.395Z,201.82
2019-04-29T22:00:38.137Z,206.95
2019-04-29T22:03:09.361Z,201.90
2019-04-29T22:05:38.933Z,229.78
2019-04-29T22:08:08.398Z,218.42
2019-04-29T22:10:37.893Z,207.10
2019-04-29T22:13:07.896Z,210.78
2019-04-29T22:15:41.071Z,214.12
2019-04-29T22:18:13.916Z,211.72
2019-04-29T22:20:42.300Z,202.68
2019-04-29T22:23:13.441Z,241.08
2019-04-29T22:25:45.661Z,304.80
2019-04-29T22:28:16.039Z,312.30
2019-04-29T22:30:45.271Z,300.15
2019-04-29T22:33:15.362Z,342.27
2019-04-29T22:35:46.211Z,387.38
2019-04-29T22:38:16.692Z,228.85
2019-04-29T22:40:47.172Z,309.05
2019-04-29T22:43:25.345Z,254.78
2019-04-29T22:45:54.964Z,682.47
2019-04-29T22:48:25.636Z,359.37
2019-04-29T22:50:55.654Z,517.77
2019-04-29T22:53:26.216Z,503.85
2019-04-29T22:55:56.526Z,511.20
2019-04-29T22:58:27.313Z,423.73
2019-04-29T23:00:56.905Z,719.33
2019-04-29T23:03:26.364Z,365.73
2019-04-29T23:06:00.126Z,597.55
2019-04-29T23:08:29.704Z,741.10
2019-04-29T23:10:59.856Z,519.08
2019-04-29T23:13:31.165Z,752.90
2019-04-29T23:16:02.261Z,437.48
2019-04-29T23:18:38.513Z,314.35
2019-04-29T23:21:05.285Z,723.73
2019-04-29T23:23:42.517Z,352.77
2019-04-29T23:26:12.073Z,681.85
2019-04-29T23:28:41.461Z,350.30
2019-04-29T23:31:11.114Z,385.22
2019-04-29T23:33:40.707Z,214.02
2019-04-29T23:36:14.250Z,182.78
2019-04-29T23:38:42.759Z,198.78
2019-04-29T23:41:12.522Z,190.80
2019-04-29T23:43:41.975Z,190.60
2019-04-29T23:46:11.535Z,173.72
2019-04-29T23:48:41.840Z,158.22
2019-04-29T23:51:11.362Z,178.90
2019-04-29T23:53:41.169Z,148.43
2019-04-29T23:56:10.672Z,170.92
2019-04-29T23:58:50.267Z,156.93
